sensor_id;sensor_type;location;lat;lon;timestamp;P1;durP1;ratioP1;P2;durP2;ratioP2
59189;SDS011;50749;51.636;4.948;2022-11-20T00:00:52;6.13;;;3.90;;
59189;SDS011;50749;51.636;4.948;2022-11-20T00:03:18;4.50;;;3.53;;
59189;SDS011;50749;51.636;4.948;2022-11-20T00:05:45;5.03;;;3.00;;
59189;SDS011;50749;51.636;4.948;2022-11-20T00:08:11;4.88;;;3.42;;
59189;SDS011;50749;51.636;4.948;2022-11-20T00:10:37;4.57;;;3.40;;
59189;SDS011;50749;51.636;4.948;2022-11-20T00:13:04;5.18;;;2.97;;
59189;SDS011;50749;51.636;4.948;2022-11-20T00:15:31;4.65;;;3.17;;
59189;SDS011;50749;51.636;4.948;2022-11-20T00:17:56;5.03;;;3.50;;
59189;SDS011;50749;51.636;4.948;2022-11-20T00:20:22;5.20;;;3.25;;
59189;SDS011;50749;51.636;4.948;2022-11-20T00:22:49;5.88;;;3.20;;
59189;SDS011;50749;51.636;4.948;2022-11-20T00:25:15;5.57;;;3.00;;
59189;SDS011;50749;51.636;4.948;2022-11-20T00:27:41;4.35;;;3.05;;
59189;SDS011;50749;51.636;4.948;2022-11-20T00:30:07;5.53;;;3.47;;
59189;SDS011;50749;51.636;4.948;2022-11-20T00:32:33;4.90;;;3.42;;
59189;SDS011;50749;51.636;4.948;2022-11-20T00:34:59;4.28;;;3.20;;
59189;SDS011;50749;51.636;4.948;2022-11-20T00:37:25;5.00;;;3.50;;
59189;SDS011;50749;51.636;4.948;2022-11-20T00:39:51;4.68;;;3.17;;
59189;SDS011;50749;51.636;4.948;2022-11-20T00:42:17;4.88;;;3.05;;
59189;SDS011;50749;51.636;4.948;2022-11-20T00:44:43;4.35;;;3.00;;
59189;SDS011;50749;51.636;4.948;2022-11-20T00:47:08;3.67;;;2.63;;
59189;SDS011;50749;51.636;4.948;2022-11-20T00:49:34;5.18;;;3.30;;
59189;SDS011;50749;51.636;4.948;2022-11-20T00:52:00;5.03;;;3.28;;
59189;SDS011;50749;51.636;4.948;2022-11-20T00:54:26;5.43;;;3.38;;
59189;SDS011;50749;51.636;4.948;2022-11-20T00:56:54;3.72;;;2.85;;
59189;SDS011;50749;51.636;4.948;2022-11-20T00:59:20;4.75;;;3.25;;
59189;SDS011;50749;51.636;4.948;2022-11-20T01:01:46;5.00;;;3.33;;
59189;SDS011;50749;51.636;4.948;2022-11-20T01:04:12;5.13;;;3.25;;
59189;SDS011;50749;51.636;4.948;2022-11-20T01:06:38;3.85;;;2.83;;
59189;SDS011;50749;51.636;4.948;2022-11-20T01:09:06;3.83;;;2.45;;
59189;SDS011;50749;51.636;4.948;2022-11-20T01:11:36;5.45;;;3.30;;
59189;SDS011;50749;51.636;4.948;2022-11-20T01:14:05;4.07;;;2.95;;
59189;SDS011;50749;51.636;4.948;2022-11-20T01:16:43;5.18;;;2.72;;
59189;SDS011;50749;51.636;4.948;2022-11-20T01:19:12;5.65;;;2.90;;
59189;SDS011;50749;51.636;4.948;2022-11-20T01:21:43;4.40;;;3.30;;
59189;SDS011;50749;51.636;4.948;2022-11-20T01:24:11;4.00;;;2.70;;
59189;SDS011;50749;51.636;4.948;2022-11-20T01:26:39;4.88;;;3.03;;
59189;SDS011;50749;51.636;4.948;2022-11-20T01:29:09;4.20;;;2.97;;
59189;SDS011;50749;51.636;4.948;2022-11-20T01:31:38;4.28;;;2.78;;
59189;SDS011;50749;51.636;4.948;2022-11-20T01:34:05;4.30;;;2.97;;
59189;SDS011;50749;51.636;4.948;2022-11-20T01:36:33;3.40;;;2.63;;
59189;SDS011;50749;51.636;4.948;2022-11-20T01:39:02;4.78;;;2.78;;
59189;SDS011;50749;51.636;4.948;2022-11-20T01:41:30;5.50;;;3.00;;
59189;SDS011;50749;51.636;4.948;2022-11-20T01:44:17;3.85;;;2.63;;
59189;SDS011;50749;51.636;4.948;2022-11-20T01:46:59;4.70;;;2.97;;
59189;SDS011;50749;51.636;4.948;2022-11-20T01:52:32;3.72;;;2.53;;
59189;SDS011;50749;51.636;4.948;2022-11-20T01:55:05;4.20;;;2.95;;
59189;SDS011;50749;51.636;4.948;2022-11-20T01:57:34;3.40;;;2.70;;
59189;SDS011;50749;51.636;4.948;2022-11-20T02:00:05;5.10;;;3.30;;
59189;SDS011;50749;51.636;4.948;2022-11-20T02:02:35;3.92;;;2.60;;
59189;SDS011;50749;51.636;4.948;2022-11-20T02:05:12;4.18;;;3.03;;
59189;SDS011;50749;51.636;4.948;2022-11-20T02:07:44;5.00;;;3.28;;
59189;SDS011;50749;51.636;4.948;2022-11-20T02:10:12;4.43;;;3.00;;
59189;SDS011;50749;51.636;4.948;2022-11-20T02:12:38;5.18;;;3.25;;
59189;SDS011;50749;51.636;4.948;2022-11-20T02:15:22;4.93;;;2.72;;
59189;SDS011;50749;51.636;4.948;2022-11-20T02:17:48;4.10;;;2.58;;
59189;SDS011;50749;51.636;4.948;2022-11-20T02:20:14;3.78;;;2.60;;
59189;SDS011;50749;51.636;4.948;2022-11-20T02:22:43;6.18;;;2.92;;
59189;SDS011;50749;51.636;4.948;2022-11-20T02:25:16;5.38;;;3.00;;
59189;SDS011;50749;51.636;4.948;2022-11-20T02:27:43;3.65;;;2.45;;
59189;SDS011;50749;51.636;4.948;2022-11-20T02:30:10;3.15;;;2.33;;
59189;SDS011;50749;51.636;4.948;2022-11-20T02:32:38;4.25;;;2.80;;
59189;SDS011;50749;51.636;4.948;2022-11-20T02:35:07;5.20;;;3.25;;
59189;SDS011;50749;51.636;4.948;2022-11-20T02:37:50;4.03;;;2.80;;
59189;SDS011;50749;51.636;4.948;2022-11-20T02:40:18;4.22;;;3.05;;
59189;SDS011;50749;51.636;4.948;2022-11-20T02:42:44;3.83;;;2.70;;
59189;SDS011;50749;51.636;4.948;2022-11-20T02:45:10;4.38;;;3.08;;
59189;SDS011;50749;51.636;4.948;2022-11-20T02:47:36;4.05;;;2.65;;
59189;SDS011;50749;51.636;4.948;2022-11-20T02:50:03;4.70;;;3.08;;
59189;SDS011;50749;51.636;4.948;2022-11-20T02:52:29;3.83;;;2.83;;
59189;SDS011;50749;51.636;4.948;2022-11-20T02:54:55;3.92;;;2.90;;
59189;SDS011;50749;51.636;4.948;2022-11-20T02:57:21;4.05;;;3.00;;
59189;SDS011;50749;51.636;4.948;2022-11-20T02:59:47;4.07;;;2.90;;
59189;SDS011;50749;51.636;4.948;2022-11-20T03:02:13;4.15;;;2.90;;
59189;SDS011;50749;51.636;4.948;2022-11-20T03:04:39;4.82;;;2.97;;
59189;SDS011;50749;51.636;4.948;2022-11-20T03:07:04;4.45;;;2.70;;
59189;SDS011;50749;51.636;4.948;2022-11-20T03:09:30;4.20;;;2.90;;
59189;SDS011;50749;51.636;4.948;2022-11-20T03:11:56;4.03;;;2.88;;
59189;SDS011;50749;51.636;4.948;2022-11-20T03:14:22;4.03;;;2.55;;
59189;SDS011;50749;51.636;4.948;2022-11-20T03:16:48;3.50;;;2.80;;
59189;SDS011;50749;51.636;4.948;2022-11-20T03:19:14;4.22;;;2.45;;
59189;SDS011;50749;51.636;4.948;2022-11-20T03:21:39;5.15;;;3.35;;
59189;SDS011;50749;51.636;4.948;2022-11-20T03:24:06;4.95;;;3.08;;
59189;SDS011;50749;51.636;4.948;2022-11-20T03:26:32;4.03;;;2.50;;
59189;SDS011;50749;51.636;4.948;2022-11-20T03:28:59;3.85;;;2.92;;
59189;SDS011;50749;51.636;4.948;2022-11-20T03:31:28;4.47;;;2.83;;
59189;SDS011;50749;51.636;4.948;2022-11-20T03:33:56;4.05;;;2.83;;
59189;SDS011;50749;51.636;4.948;2022-11-20T03:36:23;5.07;;;3.00;;
59189;SDS011;50749;51.636;4.948;2022-11-20T03:38:49;5.05;;;3.05;;
59189;SDS011;50749;51.636;4.948;2022-11-20T03:41:17;4.10;;;3.10;;
59189;SDS011;50749;51.636;4.948;2022-11-20T03:43:48;4.40;;;2.63;;
59189;SDS011;50749;51.636;4.948;2022-11-20T03:46:15;3.83;;;2.33;;
59189;SDS011;50749;51.636;4.948;2022-11-20T03:48:41;5.00;;;2.22;;
59189;SDS011;50749;51.636;4.948;2022-11-20T03:51:14;4.68;;;3.33;;
59189;SDS011;50749;51.636;4.948;2022-11-20T03:53:47;5.32;;;2.70;;
59189;SDS011;50749;51.636;4.948;2022-11-20T03:56:15;4.20;;;2.63;;
59189;SDS011;50749;51.636;4.948;2022-11-20T03:58:43;4.60;;;2.83;;
59189;SDS011;50749;51.636;4.948;2022-11-20T04:01:15;4.55;;;3.10;;
59189;SDS011;50749;51.636;4.948;2022-11-20T04:06:17;4.80;;;3.10;;
59189;SDS011;50749;51.636;4.948;2022-11-20T04:08:46;4.38;;;2.92;;
59189;SDS011;50749;51.636;4.948;2022-11-20T04:11:12;4.80;;;3.20;;
59189;SDS011;50749;51.636;4.948;2022-11-20T04:13:46;3.83;;;2.97;;
59189;SDS011;50749;51.636;4.948;2022-11-20T04:16:14;4.38;;;2.75;;
59189;SDS011;50749;51.636;4.948;2022-11-20T04:18:41;4.20;;;3.08;;
59189;SDS011;50749;51.636;4.948;2022-11-20T04:21:06;4.07;;;2.70;;
59189;SDS011;50749;51.636;4.948;2022-11-20T04:23:32;3.80;;;2.90;;
59189;SDS011;50749;51.636;4.948;2022-11-20T04:26:05;4.60;;;2.78;;
59189;SDS011;50749;51.636;4.948;2022-11-20T04:31:01;4.05;;;2.55;;
59189;SDS011;50749;51.636;4.948;2022-11-20T04:33:31;4.68;;;2.90;;
59189;SDS011;50749;51.636;4.948;2022-11-20T04:35:59;5.38;;;3.28;;
59189;SDS011;50749;51.636;4.948;2022-11-20T04:38:29;5.10;;;3.03;;
59189;SDS011;50749;51.636;4.948;2022-11-20T04:41:04;3.85;;;3.00;;
59189;SDS011;50749;51.636;4.948;2022-11-20T04:43:32;4.78;;;2.75;;
59189;SDS011;50749;51.636;4.948;2022-11-20T04:45:58;6.32;;;3.22;;
59189;SDS011;50749;51.636;4.948;2022-11-20T04:48:25;4.20;;;2.60;;
59189;SDS011;50749;51.636;4.948;2022-11-20T04:50:52;3.60;;;2.40;;
59189;SDS011;50749;51.636;4.948;2022-11-20T04:53:19;3.90;;;3.03;;
59189;SDS011;50749;51.636;4.948;2022-11-20T04:55:46;4.18;;;3.00;;
59189;SDS011;50749;51.636;4.948;2022-11-20T04:58:12;4.22;;;3.10;;
59189;SDS011;50749;51.636;4.948;2022-11-20T05:00:38;6.95;;;3.05;;
59189;SDS011;50749;51.636;4.948;2022-11-20T05:03:04;4.38;;;2.75;;
59189;SDS011;50749;51.636;4.948;2022-11-20T05:05:30;4.30;;;3.08;;
59189;SDS011;50749;51.636;4.948;2022-11-20T05:07:57;3.95;;;2.55;;
59189;SDS011;50749;51.636;4.948;2022-11-20T05:10:23;4.38;;;2.78;;
59189;SDS011;50749;51.636;4.948;2022-11-20T05:12:50;4.70;;;3.00;;
59189;SDS011;50749;51.636;4.948;2022-11-20T05:15:15;3.90;;;2.67;;
59189;SDS011;50749;51.636;4.948;2022-11-20T05:17:46;4.70;;;3.17;;
59189;SDS011;50749;51.636;4.948;2022-11-20T05:20:13;3.95;;;2.70;;
59189;SDS011;50749;51.636;4.948;2022-11-20T05:22:39;4.57;;;2.60;;
59189;SDS011;50749;51.636;4.948;2022-11-20T05:25:04;3.67;;;2.30;;
59189;SDS011;50749;51.636;4.948;2022-11-20T05:27:31;4.32;;;2.80;;
59189;SDS011;50749;51.636;4.948;2022-11-20T05:29:56;4.20;;;2.80;;
59189;SDS011;50749;51.636;4.948;2022-11-20T05:32:22;4.25;;;2.80;;
59189;SDS011;50749;51.636;4.948;2022-11-20T05:34:51;5.43;;;3.08;;
59189;SDS011;50749;51.636;4.948;2022-11-20T05:37:17;3.80;;;2.90;;
59189;SDS011;50749;51.636;4.948;2022-11-20T05:39:43;4.57;;;3.03;;
59189;SDS011;50749;51.636;4.948;2022-11-20T05:42:09;5.00;;;3.40;;
59189;SDS011;50749;51.636;4.948;2022-11-20T05:44:53;6.10;;;2.95;;
59189;SDS011;50749;51.636;4.948;2022-11-20T05:47:19;3.67;;;2.53;;
59189;SDS011;50749;51.636;4.948;2022-11-20T05:49:45;4.50;;;2.70;;
59189;SDS011;50749;51.636;4.948;2022-11-20T05:52:11;4.10;;;3.00;;
59189;SDS011;50749;51.636;4.948;2022-11-20T05:54:37;4.95;;;3.42;;
59189;SDS011;50749;51.636;4.948;2022-11-20T05:57:03;4.03;;;2.67;;
59189;SDS011;50749;51.636;4.948;2022-11-20T05:59:28;3.70;;;2.75;;
59189;SDS011;50749;51.636;4.948;2022-11-20T06:01:54;4.93;;;2.92;;
59189;SDS011;50749;51.636;4.948;2022-11-20T06:04:21;4.25;;;3.05;;
59189;SDS011;50749;51.636;4.948;2022-11-20T06:06:47;4.65;;;2.80;;
59189;SDS011;50749;51.636;4.948;2022-11-20T06:09:12;4.85;;;2.95;;
59189;SDS011;50749;51.636;4.948;2022-11-20T06:11:38;3.78;;;2.83;;
59189;SDS011;50749;51.636;4.948;2022-11-20T06:14:04;4.85;;;2.75;;
59189;SDS011;50749;51.636;4.948;2022-11-20T06:16:30;4.13;;;2.85;;
59189;SDS011;50749;51.636;4.948;2022-11-20T06:18:56;4.55;;;3.10;;
59189;SDS011;50749;51.636;4.948;2022-11-20T06:21:22;4.70;;;2.75;;
59189;SDS011;50749;51.636;4.948;2022-11-20T06:23:48;4.63;;;2.97;;
59189;SDS011;50749;51.636;4.948;2022-11-20T06:26:19;4.07;;;2.72;;
59189;SDS011;50749;51.636;4.948;2022-11-20T06:28:47;3.75;;;2.53;;
59189;SDS011;50749;51.636;4.948;2022-11-20T06:31:14;3.78;;;2.42;;
59189;SDS011;50749;51.636;4.948;2022-11-20T06:33:41;4.30;;;2.50;;
59189;SDS011;50749;51.636;4.948;2022-11-20T06:36:09;3.40;;;2.22;;
59189;SDS011;50749;51.636;4.948;2022-11-20T06:38:36;3.72;;;2.50;;
59189;SDS011;50749;51.636;4.948;2022-11-20T06:41:03;5.45;;;2.20;;
59189;SDS011;50749;51.636;4.948;2022-11-20T06:43:32;3.45;;;2.15;;
59189;SDS011;50749;51.636;4.948;2022-11-20T06:45:58;3.70;;;2.30;;
59189;SDS011;50749;51.636;4.948;2022-11-20T06:48:25;3.40;;;2.20;;
59189;SDS011;50749;51.636;4.948;2022-11-20T06:50:52;3.72;;;2.38;;
59189;SDS011;50749;51.636;4.948;2022-11-20T06:53:18;3.45;;;2.33;;
59189;SDS011;50749;51.636;4.948;2022-11-20T06:55:44;4.97;;;2.25;;
59189;SDS011;50749;51.636;4.948;2022-11-20T06:58:13;5.05;;;2.80;;
59189;SDS011;50749;51.636;4.948;2022-11-20T07:00:40;4.28;;;2.95;;
59189;SDS011;50749;51.636;4.948;2022-11-20T07:03:07;3.92;;;2.45;;
59189;SDS011;50749;51.636;4.948;2022-11-20T07:05:34;3.50;;;2.53;;
59189;SDS011;50749;51.636;4.948;2022-11-20T07:08:01;4.53;;;2.50;;
59189;SDS011;50749;51.636;4.948;2022-11-20T07:10:28;4.65;;;2.00;;
59189;SDS011;50749;51.636;4.948;2022-11-20T07:12:54;3.47;;;2.25;;
59189;SDS011;50749;51.636;4.948;2022-11-20T07:15:21;2.90;;;2.13;;
59189;SDS011;50749;51.636;4.948;2022-11-20T07:17:48;3.28;;;2.13;;
59189;SDS011;50749;51.636;4.948;2022-11-20T07:20:14;3.40;;;2.35;;
59189;SDS011;50749;51.636;4.948;2022-11-20T07:22:40;3.53;;;2.22;;
59189;SDS011;50749;51.636;4.948;2022-11-20T07:25:07;5.38;;;2.58;;
59189;SDS011;50749;51.636;4.948;2022-11-20T07:27:33;3.65;;;2.45;;
59189;SDS011;50749;51.636;4.948;2022-11-20T07:30:00;4.53;;;2.38;;
59189;SDS011;50749;51.636;4.948;2022-11-20T07:32:26;3.40;;;2.28;;
59189;SDS011;50749;51.636;4.948;2022-11-20T07:34:52;4.68;;;2.38;;
59189;SDS011;50749;51.636;4.948;2022-11-20T07:37:18;3.08;;;2.33;;
59189;SDS011;50749;51.636;4.948;2022-11-20T07:39:44;4.03;;;2.45;;
59189;SDS011;50749;51.636;4.948;2022-11-20T07:42:09;7.15;;;2.65;;
59189;SDS011;50749;51.636;4.948;2022-11-20T07:44:37;3.90;;;2.35;;
59189;SDS011;50749;51.636;4.948;2022-11-20T07:47:03;4.43;;;2.47;;
59189;SDS011;50749;51.636;4.948;2022-11-20T07:49:29;3.47;;;2.00;;
59189;SDS011;50749;51.636;4.948;2022-11-20T07:51:55;4.22;;;2.03;;
59189;SDS011;50749;51.636;4.948;2022-11-20T07:54:22;5.72;;;2.40;;
59189;SDS011;50749;51.636;4.948;2022-11-20T07:56:48;4.30;;;2.35;;
59189;SDS011;50749;51.636;4.948;2022-11-20T07:59:14;3.65;;;2.22;;
59189;SDS011;50749;51.636;4.948;2022-11-20T08:01:41;3.65;;;2.22;;
59189;SDS011;50749;51.636;4.948;2022-11-20T08:04:08;3.42;;;2.22;;
59189;SDS011;50749;51.636;4.948;2022-11-20T08:06:35;2.53;;;1.77;;
59189;SDS011;50749;51.636;4.948;2022-11-20T08:09:02;3.30;;;2.08;;
59189;SDS011;50749;51.636;4.948;2022-11-20T08:11:27;2.95;;;2.05;;
59189;SDS011;50749;51.636;4.948;2022-11-20T08:14:12;3.25;;;2.30;;
59189;SDS011;50749;51.636;4.948;2022-11-20T08:16:39;3.53;;;2.05;;
59189;SDS011;50749;51.636;4.948;2022-11-20T08:19:05;3.53;;;2.20;;
59189;SDS011;50749;51.636;4.948;2022-11-20T08:21:30;4.68;;;2.17;;
59189;SDS011;50749;51.636;4.948;2022-11-20T08:23:57;3.35;;;1.95;;
59189;SDS011;50749;51.636;4.948;2022-11-20T08:26:23;4.78;;;2.00;;
59189;SDS011;50749;51.636;4.948;2022-11-20T08:28:53;3.28;;;2.00;;
59189;SDS011;50749;51.636;4.948;2022-11-20T08:31:20;4.15;;;2.40;;
59189;SDS011;50749;51.636;4.948;2022-11-20T08:33:47;4.18;;;2.50;;
59189;SDS011;50749;51.636;4.948;2022-11-20T08:36:13;4.00;;;2.38;;
59189;SDS011;50749;51.636;4.948;2022-11-20T08:38:39;3.92;;;2.20;;
59189;SDS011;50749;51.636;4.948;2022-11-20T08:41:05;3.92;;;2.00;;
59189;SDS011;50749;51.636;4.948;2022-11-20T08:43:50;4.20;;;2.67;;
59189;SDS011;50749;51.636;4.948;2022-11-20T08:46:16;3.58;;;2.20;;
59189;SDS011;50749;51.636;4.948;2022-11-20T08:48:42;3.00;;;2.15;;
59189;SDS011;50749;51.636;4.948;2022-11-20T08:51:09;3.00;;;2.20;;
59189;SDS011;50749;51.636;4.948;2022-11-20T08:53:36;3.40;;;2.28;;
59189;SDS011;50749;51.636;4.948;2022-11-20T08:56:02;3.33;;;2.22;;
59189;SDS011;50749;51.636;4.948;2022-11-20T08:58:28;5.78;;;2.25;;
59189;SDS011;50749;51.636;4.948;2022-11-20T09:00:54;4.43;;;2.30;;
59189;SDS011;50749;51.636;4.948;2022-11-20T09:03:20;2.90;;;2.25;;
59189;SDS011;50749;51.636;4.948;2022-11-20T09:05:46;3.20;;;2.22;;
59189;SDS011;50749;51.636;4.948;2022-11-20T09:08:12;3.55;;;1.92;;
59189;SDS011;50749;51.636;4.948;2022-11-20T09:10:38;2.53;;;1.90;;
59189;SDS011;50749;51.636;4.948;2022-11-20T09:13:06;5.30;;;2.03;;
59189;SDS011;50749;51.636;4.948;2022-11-20T09:15:32;2.83;;;2.33;;
59189;SDS011;50749;51.636;4.948;2022-11-20T09:18:02;3.25;;;2.20;;
59189;SDS011;50749;51.636;4.948;2022-11-20T09:20:30;4.90;;;2.20;;
59189;SDS011;50749;51.636;4.948;2022-11-20T09:22:57;3.63;;;2.33;;
59189;SDS011;50749;51.636;4.948;2022-11-20T09:25:23;2.75;;;2.00;;
59189;SDS011;50749;51.636;4.948;2022-11-20T09:27:56;6.97;;;2.35;;
59189;SDS011;50749;51.636;4.948;2022-11-20T09:30:25;3.53;;;2.60;;
59189;SDS011;50749;51.636;4.948;2022-11-20T09:32:52;3.33;;;2.50;;
59189;SDS011;50749;51.636;4.948;2022-11-20T09:35:18;3.42;;;2.15;;
59189;SDS011;50749;51.636;4.948;2022-11-20T09:37:44;4.15;;;2.15;;
59189;SDS011;50749;51.636;4.948;2022-11-20T09:40:17;3.85;;;2.10;;
59189;SDS011;50749;51.636;4.948;2022-11-20T09:45:44;3.70;;;2.25;;
59189;SDS011;50749;51.636;4.948;2022-11-20T09:48:40;4.70;;;2.15;;
59189;SDS011;50749;51.636;4.948;2022-11-20T09:51:36;3.95;;;2.60;;
59189;SDS011;50749;51.636;4.948;2022-11-20T09:54:16;5.95;;;2.58;;
59189;SDS011;50749;51.636;4.948;2022-11-20T09:56:45;4.32;;;2.30;;
59189;SDS011;50749;51.636;4.948;2022-11-20T09:59:20;2.90;;;2.35;;
59189;SDS011;50749;51.636;4.948;2022-11-20T10:01:58;4.53;;;2.50;;
59189;SDS011;50749;51.636;4.948;2022-11-20T10:04:26;2.88;;;1.80;;
59189;SDS011;50749;51.636;4.948;2022-11-20T10:09:43;4.00;;;1.80;;
59189;SDS011;50749;51.636;4.948;2022-11-20T10:15:01;5.57;;;2.65;;
59189;SDS011;50749;51.636;4.948;2022-11-20T10:26:21;4.90;;;2.35;;
59189;SDS011;50749;51.636;4.948;2022-11-20T10:28:58;2.70;;;2.00;;
59189;SDS011;50749;51.636;4.948;2022-11-20T10:31:31;4.57;;;2.55;;
59189;SDS011;50749;51.636;4.948;2022-11-20T10:34:01;4.22;;;2.42;;
59189;SDS011;50749;51.636;4.948;2022-11-20T10:36:38;3.25;;;1.95;;
59189;SDS011;50749;51.636;4.948;2022-11-20T10:39:20;6.03;;;2.58;;
59189;SDS011;50749;51.636;4.948;2022-11-20T10:42:12;5.47;;;2.80;;
59189;SDS011;50749;51.636;4.948;2022-11-20T10:44:42;3.65;;;2.67;;
59189;SDS011;50749;51.636;4.948;2022-11-20T10:49:53;5.05;;;2.50;;
59189;SDS011;50749;51.636;4.948;2022-11-20T11:01:04;5.53;;;2.45;;
59189;SDS011;50749;51.636;4.948;2022-11-20T11:03:52;4.82;;;2.60;;
59189;SDS011;50749;51.636;4.948;2022-11-20T11:08:58;4.10;;;2.60;;
59189;SDS011;50749;51.636;4.948;2022-11-20T11:11:30;4.50;;;2.83;;
59189;SDS011;50749;51.636;4.948;2022-11-20T11:14:14;4.68;;;2.58;;
59189;SDS011;50749;51.636;4.948;2022-11-20T11:16:48;5.50;;;3.45;;
59189;SDS011;50749;51.636;4.948;2022-11-20T11:19:16;5.85;;;3.15;;
59189;SDS011;50749;51.636;4.948;2022-11-20T11:21:46;4.50;;;3.33;;
59189;SDS011;50749;51.636;4.948;2022-11-20T11:24:19;5.35;;;3.15;;
59189;SDS011;50749;51.636;4.948;2022-11-20T11:29:30;4.63;;;2.85;;
59189;SDS011;50749;51.636;4.948;2022-11-20T11:32:30;9.30;;;3.60;;
59189;SDS011;50749;51.636;4.948;2022-11-20T11:34:58;8.93;;;4.13;;
59189;SDS011;50749;51.636;4.948;2022-11-20T11:37:33;11.05;;;3.90;;
59189;SDS011;50749;51.636;4.948;2022-11-20T11:40:02;9.18;;;3.40;;
59189;SDS011;50749;51.636;4.948;2022-11-20T11:42:29;8.70;;;4.95;;
59189;SDS011;50749;51.636;4.948;2022-11-20T11:44:56;7.80;;;4.30;;
59189;SDS011;50749;51.636;4.948;2022-11-20T11:47:31;8.50;;;4.93;;
59189;SDS011;50749;51.636;4.948;2022-11-20T11:55:38;11.75;;;5.47;;
59189;SDS011;50749;51.636;4.948;2022-11-20T12:03:55;8.70;;;5.22;;
59189;SDS011;50749;51.636;4.948;2022-11-20T12:06:30;14.63;;;4.72;;
59189;SDS011;50749;51.636;4.948;2022-11-20T12:09:01;11.02;;;4.85;;
59189;SDS011;50749;51.636;4.948;2022-11-20T12:11:34;7.78;;;4.20;;
59189;SDS011;50749;51.636;4.948;2022-11-20T12:14:36;6.80;;;4.55;;
59189;SDS011;50749;51.636;4.948;2022-11-20T12:17:04;8.80;;;3.97;;
59189;SDS011;50749;51.636;4.948;2022-11-20T12:19:31;6.97;;;3.75;;
59189;SDS011;50749;51.636;4.948;2022-11-20T12:27:43;8.15;;;4.57;;
59189;SDS011;50749;51.636;4.948;2022-11-20T12:30:15;7.40;;;3.88;;
59189;SDS011;50749;51.636;4.948;2022-11-20T12:32:50;8.68;;;4.25;;
59189;SDS011;50749;51.636;4.948;2022-11-20T12:41:03;9.38;;;5.88;;
59189;SDS011;50749;51.636;4.948;2022-11-20T12:43:31;11.83;;;5.90;;
59189;SDS011;50749;51.636;4.948;2022-11-20T12:49:19;5.95;;;4.18;;
59189;SDS011;50749;51.636;4.948;2022-11-20T12:52:10;9.35;;;5.63;;
59189;SDS011;50749;51.636;4.948;2022-11-20T12:55:09;10.25;;;4.88;;
59189;SDS011;50749;51.636;4.948;2022-11-20T12:57:44;11.88;;;5.88;;
59189;SDS011;50749;51.636;4.948;2022-11-20T13:00:18;8.73;;;5.00;;
59189;SDS011;50749;51.636;4.948;2022-11-20T13:06:05;8.00;;;4.57;;
59189;SDS011;50749;51.636;4.948;2022-11-20T13:08:35;14.73;;;5.63;;
59189;SDS011;50749;51.636;4.948;2022-11-20T13:11:13;8.73;;;4.45;;
59189;SDS011;50749;51.636;4.948;2022-11-20T13:13:45;8.95;;;5.05;;
59189;SDS011;50749;51.636;4.948;2022-11-20T13:16:33;7.20;;;4.20;;
59189;SDS011;50749;51.636;4.948;2022-11-20T13:19:13;9.10;;;5.13;;
59189;SDS011;50749;51.636;4.948;2022-11-20T13:21:42;11.38;;;5.55;;
59189;SDS011;50749;51.636;4.948;2022-11-20T13:29:36;10.18;;;5.18;;
59189;SDS011;50749;51.636;4.948;2022-11-20T13:32:14;9.38;;;4.88;;
59189;SDS011;50749;51.636;4.948;2022-11-20T13:34:55;10.13;;;4.80;;
59189;SDS011;50749;51.636;4.948;2022-11-20T13:37:44;10.57;;;4.90;;
59189;SDS011;50749;51.636;4.948;2022-11-20T13:40:13;8.60;;;4.63;;
59189;SDS011;50749;51.636;4.948;2022-11-20T13:42:46;10.85;;;4.70;;
59189;SDS011;50749;51.636;4.948;2022-11-20T13:45:23;13.52;;;5.30;;
59189;SDS011;50749;51.636;4.948;2022-11-20T13:47:52;7.50;;;4.63;;
59189;SDS011;50749;51.636;4.948;2022-11-20T13:50:19;6.97;;;4.35;;
59189;SDS011;50749;51.636;4.948;2022-11-20T13:55:50;9.75;;;5.10;;
59189;SDS011;50749;51.636;4.948;2022-11-20T13:58:36;8.73;;;5.10;;
59189;SDS011;50749;51.636;4.948;2022-11-20T14:01:24;10.85;;;5.00;;
59189;SDS011;50749;51.636;4.948;2022-11-20T14:03:55;9.20;;;4.80;;
59189;SDS011;50749;51.636;4.948;2022-11-20T14:08:58;9.45;;;5.10;;
59189;SDS011;50749;51.636;4.948;2022-11-20T14:11:28;9.05;;;5.28;;
59189;SDS011;50749;51.636;4.948;2022-11-20T14:16:41;9.57;;;5.18;;
59189;SDS011;50749;51.636;4.948;2022-11-20T14:19:27;10.88;;;6.00;;
59189;SDS011;50749;51.636;4.948;2022-11-20T14:22:09;8.70;;;4.35;;
59189;SDS011;50749;51.636;4.948;2022-11-20T14:24:42;10.23;;;5.28;;
59189;SDS011;50749;51.636;4.948;2022-11-20T14:27:14;8.60;;;5.07;;
59189;SDS011;50749;51.636;4.948;2022-11-20T14:29:45;8.50;;;5.40;;
59189;SDS011;50749;51.636;4.948;2022-11-20T14:32:14;13.45;;;5.25;;
59189;SDS011;50749;51.636;4.948;2022-11-20T14:34:43;10.15;;;4.95;;
59189;SDS011;50749;51.636;4.948;2022-11-20T14:37:12;7.70;;;5.18;;
59189;SDS011;50749;51.636;4.948;2022-11-20T14:39:48;8.55;;;5.13;;
59189;SDS011;50749;51.636;4.948;2022-11-20T14:42:19;8.10;;;4.13;;
59189;SDS011;50749;51.636;4.948;2022-11-20T14:44:46;12.23;;;5.00;;
59189;SDS011;50749;51.636;4.948;2022-11-20T14:47:14;8.05;;;4.63;;
59189;SDS011;50749;51.636;4.948;2022-11-20T14:49:44;8.15;;;4.28;;
59189;SDS011;50749;51.636;4.948;2022-11-20T14:52:13;11.07;;;4.78;;
59189;SDS011;50749;51.636;4.948;2022-11-20T14:54:47;9.20;;;5.13;;
59189;SDS011;50749;51.636;4.948;2022-11-20T14:57:25;8.75;;;5.22;;
59189;SDS011;50749;51.636;4.948;2022-11-20T15:02:50;12.23;;;5.40;;
59189;SDS011;50749;51.636;4.948;2022-11-20T15:05:18;12.27;;;5.25;;
59189;SDS011;50749;51.636;4.948;2022-11-20T15:07:47;10.27;;;5.63;;
59189;SDS011;50749;51.636;4.948;2022-11-20T15:12:53;13.10;;;5.40;;
59189;SDS011;50749;51.636;4.948;2022-11-20T15:15:29;10.30;;;5.65;;
59189;SDS011;50749;51.636;4.948;2022-11-20T15:18:00;10.52;;;5.70;;
59189;SDS011;50749;51.636;4.948;2022-11-20T15:20:27;9.88;;;5.88;;
59189;SDS011;50749;51.636;4.948;2022-11-20T15:22:56;9.88;;;6.47;;
59189;SDS011;50749;51.636;4.948;2022-11-20T15:25:22;11.98;;;5.68;;
59189;SDS011;50749;51.636;4.948;2022-11-20T15:27:51;11.80;;;5.75;;
59189;SDS011;50749;51.636;4.948;2022-11-20T15:30:21;13.90;;;6.32;;
59189;SDS011;50749;51.636;4.948;2022-11-20T15:32:48;9.80;;;6.10;;
59189;SDS011;50749;51.636;4.948;2022-11-20T15:35:14;12.88;;;5.90;;
59189;SDS011;50749;51.636;4.948;2022-11-20T15:37:40;9.45;;;5.40;;
59189;SDS011;50749;51.636;4.948;2022-11-20T15:40:07;11.13;;;5.72;;
59189;SDS011;50749;51.636;4.948;2022-11-20T15:42:34;8.88;;;5.65;;
59189;SDS011;50749;51.636;4.948;2022-11-20T15:45:00;9.63;;;6.05;;
59189;SDS011;50749;51.636;4.948;2022-11-20T15:47:27;9.52;;;5.82;;
59189;SDS011;50749;51.636;4.948;2022-11-20T15:49:56;9.57;;;5.47;;
59189;SDS011;50749;51.636;4.948;2022-11-20T15:52:22;10.57;;;5.68;;
59189;SDS011;50749;51.636;4.948;2022-11-20T15:54:48;8.95;;;5.63;;
59189;SDS011;50749;51.636;4.948;2022-11-20T15:57:13;10.02;;;5.28;;
59189;SDS011;50749;51.636;4.948;2022-11-20T15:59:39;10.32;;;5.22;;
59189;SDS011;50749;51.636;4.948;2022-11-20T16:02:10;12.35;;;6.18;;
59189;SDS011;50749;51.636;4.948;2022-11-20T16:04:37;9.52;;;5.82;;
59189;SDS011;50749;51.636;4.948;2022-11-20T16:07:03;8.82;;;5.97;;
59189;SDS011;50749;51.636;4.948;2022-11-20T16:09:29;9.88;;;5.78;;
59189;SDS011;50749;51.636;4.948;2022-11-20T16:11:55;9.50;;;4.90;;
59189;SDS011;50749;51.636;4.948;2022-11-20T16:14:21;17.10;;;5.28;;
59189;SDS011;50749;51.636;4.948;2022-11-20T16:17:06;9.07;;;5.20;;
59189;SDS011;50749;51.636;4.948;2022-11-20T16:19:32;17.60;;;6.25;;
59189;SDS011;50749;51.636;4.948;2022-11-20T16:21:57;8.75;;;5.53;;
59189;SDS011;50749;51.636;4.948;2022-11-20T16:24:26;7.68;;;4.75;;
59189;SDS011;50749;51.636;4.948;2022-11-20T16:26:52;7.50;;;4.45;;
59189;SDS011;50749;51.636;4.948;2022-11-20T16:29:19;8.05;;;4.63;;